createdAt,value
2017-11-21T00:00:07.023Z,3.57
2017-11-21T00:02:33.619Z,3.70
2017-11-21T00:05:00.201Z,3.93
2017-11-21T00:07:26.780Z,3.73
2017-11-21T00:09:53.369Z,3.33
2017-11-21T00:12:19.957Z,3.30
2017-11-21T00:14:46.642Z,3.80
2017-11-21T00:17:13.208Z,3.90
2017-11-21T00:19:39.775Z,3.53
2017-11-21T00:22:06.384Z,3.20
2017-11-21T00:24:32.959Z,3.70
2017-11-21T00:26:59.558Z,3.90
2017-11-21T00:29:26.133Z,3.73
2017-11-21T00:31:52.724Z,3.60
2017-11-21T00:34:19.314Z,3.63
2017-11-21T00:36:45.906Z,3.70
2017-11-21T00:39:12.496Z,3.60
2017-11-21T00:41:39.075Z,3.40
2017-11-21T00:44:05.650Z,3.87
2017-11-21T00:46:32.242Z,3.47
2017-11-21T00:48:58.831Z,3.60
2017-11-21T00:51:25.432Z,3.50
2017-11-21T00:53:52.028Z,3.63
2017-11-21T00:56:18.607Z,3.10
2017-11-21T00:58:45.200Z,3.50
2017-11-21T01:01:11.799Z,3.73
2017-11-21T01:03:38.520Z,3.60
2017-11-21T01:06:05.083Z,3.83
2017-11-21T01:08:31.663Z,3.57
2017-11-21T01:10:58.251Z,3.23
2017-11-21T01:13:24.835Z,3.40
2017-11-21T01:15:51.675Z,3.73
2017-11-21T01:18:18.274Z,3.57
2017-11-21T01:20:44.839Z,3.83
2017-11-21T01:23:11.430Z,3.40
2017-11-21T01:25:38.008Z,3.67
2017-11-21T01:28:04.599Z,3.50
2017-11-21T01:30:31.180Z,3.63
2017-11-21T01:32:59.133Z,4.00
2017-11-21T01:35:25.717Z,3.60
2017-11-21T01:37:52.296Z,3.50
2017-11-21T01:40:18.893Z,3.40
2017-11-21T01:42:45.471Z,3.73
2017-11-21T01:45:12.059Z,3.53
2017-11-21T01:47:38.639Z,3.63
2017-11-21T01:50:05.223Z,3.80
2017-11-21T01:52:31.816Z,3.73
2017-11-21T01:54:58.391Z,3.80
2017-11-21T01:57:24.971Z,3.77
2017-11-21T01:59:51.559Z,3.63
2017-11-21T02:02:18.151Z,3.70
2017-11-21T02:04:44.753Z,3.53
2017-11-21T02:07:11.334Z,3.77
2017-11-21T02:09:37.907Z,3.67
2017-11-21T02:12:04.495Z,3.70
2017-11-21T02:14:31.075Z,3.43
2017-11-21T02:16:57.667Z,3.87
2017-11-21T02:19:24.244Z,3.67
2017-11-21T02:21:50.822Z,3.90
2017-11-21T02:24:17.419Z,3.33
2017-11-21T02:26:44.004Z,3.60
2017-11-21T02:29:10.604Z,3.70
2017-11-21T02:31:37.192Z,3.93
2017-11-21T02:34:03.776Z,4.27
2017-11-21T02:36:30.358Z,4.20
2017-11-21T02:38:56.944Z,4.07
2017-11-21T02:41:23.542Z,3.70
2017-11-21T02:43:50.131Z,4.20
2017-11-21T02:46:16.713Z,4.33
2017-11-21T02:48:43.307Z,4.93
2017-11-21T02:51:09.888Z,4.20
2017-11-21T02:53:36.479Z,4.40
2017-11-21T02:56:03.055Z,5.10
2017-11-21T02:58:29.635Z,4.57
2017-11-21T03:00:56.231Z,4.97
2017-11-21T03:03:22.808Z,4.50
2017-11-21T03:05:49.383Z,4.80
2017-11-21T03:08:15.975Z,5.30
2017-11-21T03:10:43.919Z,5.13
2017-11-21T03:13:10.500Z,4.90
2017-11-21T03:15:37.083Z,4.43
2017-11-21T03:18:03.679Z,4.93
2017-11-21T03:20:36.095Z,5.37
2017-11-21T03:23:08.688Z,5.47
2017-11-21T03:25:41.043Z,4.93
2017-11-21T03:28:07.636Z,5.30
2017-11-21T03:30:34.553Z,5.80
2017-11-21T03:33:01.133Z,5.87
2017-11-21T03:35:27.717Z,5.00
2017-11-21T03:37:54.312Z,5.20
2017-11-21T03:40:20.891Z,5.10
2017-11-21T03:42:47.470Z,6.13
2017-11-21T03:45:14.056Z,5.93
2017-11-21T03:47:40.626Z,6.10
2017-11-21T03:50:07.239Z,6.60
2017-11-21T03:52:34.763Z,5.40
2017-11-21T03:55:01.340Z,5.17
2017-11-21T03:57:27.919Z,5.60
2017-11-21T03:59:54.499Z,6.03
2017-11-21T04:02:21.092Z,5.87
2017-11-21T04:04:47.699Z,5.93
2017-11-21T04:07:14.305Z,5.73
2017-11-21T04:09:40.875Z,6.07
2017-11-21T04:12:07.479Z,6.10
2017-11-21T04:14:34.087Z,6.30
2017-11-21T04:17:01.783Z,6.50
2017-11-21T04:19:28.359Z,6.17
2017-11-21T04:21:54.939Z,5.70
2017-11-21T04:24:21.535Z,5.77
2017-11-21T04:26:48.127Z,6.30
2017-11-21T04:29:15.603Z,6.00
2017-11-21T04:31:42.184Z,5.70
2017-11-21T04:34:08.766Z,6.20
2017-11-21T04:36:35.351Z,5.97
2017-11-21T04:39:01.934Z,5.40
2017-11-21T04:41:28.535Z,6.17
2017-11-21T04:43:55.190Z,5.80
2017-11-21T04:46:21.760Z,5.97
2017-11-21T04:48:48.344Z,5.50
2017-11-21T04:51:14.951Z,5.70
2017-11-21T04:53:41.539Z,5.50
2017-11-21T04:56:08.111Z,5.60
2017-11-21T04:58:34.700Z,5.30
2017-11-21T05:01:01.283Z,5.27
2017-11-21T05:03:27.883Z,5.03
2017-11-21T05:05:57.072Z,5.47
2017-11-21T05:08:23.647Z,5.67
2017-11-21T05:10:50.237Z,5.60
2017-11-21T05:13:16.823Z,5.77
2017-11-21T05:15:44.008Z,5.60
2017-11-21T05:18:10.583Z,5.80
2017-11-21T05:20:37.178Z,5.60
2017-11-21T05:23:04.071Z,5.43
2017-11-21T05:25:30.642Z,5.30
2017-11-21T05:27:57.236Z,5.30
2017-11-21T05:30:23.814Z,5.53
2017-11-21T05:32:56.205Z,5.63
2017-11-21T05:35:22.783Z,5.90
2017-11-21T05:37:49.371Z,5.20
2017-11-21T05:40:15.967Z,4.93
2017-11-21T05:42:42.543Z,5.23
2017-11-21T05:45:09.124Z,5.40
2017-11-21T05:47:35.717Z,5.13
2017-11-21T05:50:02.911Z,5.33
2017-11-21T05:52:29.503Z,5.57
2017-11-21T05:54:56.083Z,4.83
2017-11-21T05:57:22.663Z,5.30
2017-11-21T05:59:49.285Z,5.17
2017-11-21T06:02:15.864Z,5.20
2017-11-21T06:04:42.495Z,5.30
2017-11-21T06:07:09.084Z,5.30
2017-11-21T06:09:35.667Z,5.30
2017-11-21T06:12:02.264Z,5.47
2017-11-21T06:14:28.849Z,5.03
2017-11-21T06:16:55.436Z,5.20
2017-11-21T06:19:22.011Z,4.93
2017-11-21T06:21:48.607Z,5.17
2017-11-21T06:24:15.200Z,5.40
2017-11-21T06:26:41.785Z,5.37
2017-11-21T06:29:08.376Z,5.47
2017-11-21T06:31:34.947Z,5.43
2017-11-21T06:34:01.526Z,5.57
2017-11-21T06:36:28.178Z,4.77
2017-11-21T06:38:54.765Z,5.63
2017-11-21T06:41:21.362Z,4.63
2017-11-21T06:43:47.959Z,4.50
2017-11-21T06:46:15.459Z,4.70
2017-11-21T06:48:42.061Z,4.87
2017-11-21T06:51:08.635Z,4.33
2017-11-21T06:53:35.227Z,4.73
2017-11-21T06:56:01.825Z,4.93
2017-11-21T06:58:28.388Z,4.33
2017-11-21T07:00:54.975Z,4.63
2017-11-21T07:03:21.552Z,4.03
2017-11-21T07:05:48.156Z,4.30
2017-11-21T07:08:14.740Z,4.27
2017-11-21T07:10:41.319Z,4.20
2017-11-21T07:13:07.908Z,4.40
2017-11-21T07:15:34.490Z,4.20
2017-11-21T07:18:01.091Z,4.13
2017-11-21T07:20:27.663Z,4.30
2017-11-21T07:22:54.240Z,3.97
2017-11-21T07:25:20.832Z,3.80
2017-11-21T07:27:47.425Z,3.90
2017-11-21T07:30:14.003Z,3.57
2017-11-21T07:32:40.579Z,3.80
2017-11-21T07:35:07.165Z,4.10
2017-11-21T07:37:33.774Z,3.80
2017-11-21T07:40:00.331Z,4.10
2017-11-21T07:42:26.950Z,3.67
2017-11-21T07:44:53.527Z,3.77
2017-11-21T07:47:20.112Z,3.80
2017-11-21T07:49:46.699Z,3.77
2017-11-21T07:52:13.280Z,4.10
2017-11-21T07:54:39.903Z,3.23
2017-11-21T07:57:06.479Z,4.00
2017-11-21T07:59:33.052Z,3.40
2017-11-21T08:01:59.635Z,3.47
2017-11-21T08:04:26.210Z,3.50
2017-11-21T08:06:53.431Z,3.80
2017-11-21T08:09:20.012Z,3.33
2017-11-21T08:11:46.616Z,3.30
2017-11-21T08:14:13.206Z,2.90
2017-11-21T08:16:39.803Z,3.30
2017-11-21T08:19:06.397Z,3.37
2017-11-21T08:21:32.976Z,3.57
2017-11-21T08:23:59.560Z,3.13
2017-11-21T08:26:26.177Z,3.57
2017-11-21T08:28:52.756Z,3.10
2017-11-21T08:31:19.373Z,3.20
2017-11-21T08:33:45.936Z,3.23
2017-11-21T08:36:12.516Z,2.90
2017-11-21T08:38:39.111Z,3.20
2017-11-21T08:41:05.692Z,3.03
2017-11-21T08:43:32.280Z,2.90
2017-11-21T08:45:58.860Z,3.00
2017-11-21T08:48:25.443Z,3.10
2017-11-21T08:50:52.032Z,2.83
2017-11-21T08:53:18.624Z,2.80
2017-11-21T08:55:45.218Z,3.10
2017-11-21T08:58:11.799Z,2.90
2017-11-21T09:00:38.379Z,2.77
2017-11-21T09:03:04.963Z,3.00
2017-11-21T09:05:31.545Z,3.00
2017-11-21T09:07:58.127Z,2.97
2017-11-21T09:10:24.703Z,2.70
2017-11-21T09:12:51.307Z,2.90
2017-11-21T09:15:17.889Z,3.07
2017-11-21T09:17:44.471Z,2.60
2017-11-21T09:20:11.060Z,2.87
2017-11-21T09:22:37.644Z,2.90
2017-11-21T09:25:04.232Z,3.07
2017-11-21T09:27:30.813Z,2.60
2017-11-21T09:29:57.420Z,2.60
2017-11-21T09:32:24.003Z,2.60
2017-11-21T09:34:50.586Z,2.40
2017-11-21T09:37:17.180Z,2.80
2017-11-21T09:39:43.764Z,2.70
2017-11-21T09:42:10.358Z,2.70
2017-11-21T09:44:36.939Z,2.30
2017-11-21T09:47:03.551Z,2.60
2017-11-21T09:49:30.123Z,2.43
2017-11-21T09:51:56.700Z,2.67
2017-11-21T09:54:24.247Z,2.37
2017-11-21T09:56:50.827Z,2.43
2017-11-21T09:59:17.416Z,2.27
2017-11-21T10:01:43.997Z,2.50
2017-11-21T10:04:10.588Z,2.60
2017-11-21T10:06:37.164Z,2.37
2017-11-21T10:09:03.762Z,2.43
2017-11-21T10:11:30.339Z,2.30
2017-11-21T10:13:56.923Z,2.20
2017-11-21T10:16:23.508Z,2.27
2017-11-21T10:18:50.088Z,2.40
2017-11-21T10:21:16.674Z,2.30
2017-11-21T10:23:43.257Z,2.30
2017-11-21T10:26:09.831Z,2.33
2017-11-21T10:28:36.420Z,2.23
2017-11-21T10:31:02.995Z,2.20
2017-11-21T10:33:29.587Z,2.50
2017-11-21T10:35:56.201Z,2.40
2017-11-21T10:38:22.771Z,2.37
2017-11-21T10:40:49.362Z,2.33
2017-11-21T10:43:15.939Z,2.10
2017-11-21T10:45:42.538Z,1.93
2017-11-21T10:48:09.108Z,2.50
2017-11-21T10:50:35.696Z,2.40
2017-11-21T10:53:02.276Z,2.20
2017-11-21T10:55:28.867Z,2.23
2017-11-21T10:57:55.447Z,2.13
2017-11-21T11:00:22.024Z,2.30
2017-11-21T11:02:48.627Z,2.10
2017-11-21T11:05:15.208Z,1.87
2017-11-21T11:07:41.799Z,2.03
2017-11-21T11:10:08.385Z,1.93
2017-11-21T11:12:34.979Z,2.03
2017-11-21T11:15:01.551Z,2.00
2017-11-21T11:17:28.124Z,2.23
2017-11-21T11:19:54.750Z,2.00
2017-11-21T11:22:21.308Z,2.07
2017-11-21T11:24:47.907Z,2.03
2017-11-21T11:27:14.487Z,2.10
2017-11-21T11:29:41.097Z,2.00
2017-11-21T11:32:07.683Z,2.13
2017-11-21T11:34:34.248Z,1.70
2017-11-21T11:37:00.861Z,1.90
2017-11-21T11:39:27.443Z,2.00
2017-11-21T11:41:54.045Z,2.03
2017-11-21T11:44:20.623Z,1.80
2017-11-21T11:46:47.238Z,2.00
2017-11-21T11:49:13.812Z,1.80
2017-11-21T11:51:40.400Z,2.00
2017-11-21T11:54:06.984Z,1.80
2017-11-21T11:56:33.563Z,1.90
2017-11-21T11:59:00.143Z,1.80
2017-11-21T12:01:26.727Z,2.00
2017-11-21T12:03:53.323Z,2.00
2017-11-21T12:06:19.900Z,1.70
2017-11-21T12:08:46.475Z,2.10
2017-11-21T12:11:13.059Z,1.80
2017-11-21T12:13:39.640Z,1.67
2017-11-21T12:16:06.235Z,1.80
2017-11-21T12:18:32.811Z,1.87
2017-11-21T12:20:59.403Z,1.47
2017-11-21T12:23:25.982Z,1.53
2017-11-21T12:25:52.564Z,1.57
2017-11-21T12:28:19.151Z,1.80
2017-11-21T12:30:45.732Z,1.60
2017-11-21T12:33:12.329Z,1.87
2017-11-21T12:35:39.822Z,1.70
2017-11-21T12:38:06.404Z,1.60
2017-11-21T12:40:32.987Z,1.47
2017-11-21T12:42:59.566Z,1.80
2017-11-21T12:45:26.159Z,2.10
2017-11-21T12:47:52.744Z,1.50
2017-11-21T12:50:19.333Z,1.70
2017-11-21T12:52:45.912Z,1.40
2017-11-21T12:55:12.499Z,1.77
2017-11-21T12:57:39.078Z,1.60
2017-11-21T13:00:05.668Z,1.70
2017-11-21T13:02:32.271Z,1.80
2017-11-21T13:04:58.868Z,1.60
2017-11-21T13:07:25.468Z,1.77
2017-11-21T13:09:52.049Z,1.50
2017-11-21T13:12:18.631Z,1.50
2017-11-21T13:14:45.215Z,1.63
2017-11-21T13:17:11.800Z,1.40
2017-11-21T13:19:38.397Z,1.40
2017-11-21T13:22:04.975Z,1.70
2017-11-21T13:24:31.554Z,1.70
2017-11-21T13:26:58.147Z,1.60
2017-11-21T13:29:24.737Z,1.37
2017-11-21T13:31:51.327Z,1.50
2017-11-21T13:34:17.906Z,1.47
2017-11-21T13:36:44.503Z,1.60
2017-11-21T13:39:11.075Z,1.30
2017-11-21T13:41:37.660Z,1.70
2017-11-21T13:44:04.272Z,1.53
2017-11-21T13:46:30.855Z,1.40
2017-11-21T13:48:57.443Z,1.57
2017-11-21T13:51:24.023Z,1.60
2017-11-21T13:53:50.728Z,1.50
2017-11-21T13:56:17.305Z,1.40
2017-11-21T13:58:43.892Z,1.70
2017-11-21T14:01:10.477Z,1.40
2017-11-21T14:03:37.051Z,1.90
2017-11-21T14:06:03.643Z,1.47
2017-11-21T14:08:30.223Z,1.20
2017-11-21T14:10:56.815Z,1.37
2017-11-21T14:13:23.399Z,1.47
2017-11-21T14:15:49.978Z,1.40
2017-11-21T14:18:16.568Z,1.50
2017-11-21T14:20:43.144Z,1.50
2017-11-21T14:23:09.735Z,1.50
2017-11-21T14:25:36.319Z,1.77
2017-11-21T14:28:02.920Z,1.30
2017-11-21T14:30:29.495Z,1.60
2017-11-21T14:32:56.076Z,1.60
2017-11-21T14:35:22.668Z,1.40
2017-11-21T14:37:49.252Z,1.80
2017-11-21T14:40:15.838Z,1.67
2017-11-21T14:42:42.430Z,1.40
2017-11-21T14:45:09.006Z,1.53
2017-11-21T14:47:35.584Z,1.60
2017-11-21T14:50:02.203Z,1.70
2017-11-21T14:52:28.780Z,1.53
2017-11-21T14:54:55.358Z,1.63
2017-11-21T14:57:21.949Z,1.73
2017-11-21T14:59:48.600Z,1.70
2017-11-21T15:02:15.196Z,2.07
2017-11-21T15:04:41.771Z,1.60
2017-11-21T15:07:08.355Z,1.60
2017-11-21T15:09:34.947Z,1.70
2017-11-21T15:12:01.525Z,1.73
2017-11-21T15:14:28.123Z,1.60
2017-11-21T15:16:54.700Z,1.60
2017-11-21T15:19:21.306Z,1.63
2017-11-21T15:21:47.891Z,1.60
2017-11-21T15:24:14.466Z,1.80
2017-11-21T15:26:41.084Z,1.60
2017-11-21T15:29:07.655Z,2.00
2017-11-21T15:31:34.236Z,1.83
2017-11-21T15:34:00.823Z,2.07
2017-11-21T15:36:27.421Z,1.73
2017-11-21T15:38:54.052Z,1.90
2017-11-21T15:41:20.627Z,1.90
2017-11-21T15:43:47.209Z,1.83
2017-11-21T15:46:13.799Z,1.80
2017-11-21T15:48:40.375Z,2.10
2017-11-21T15:51:06.970Z,1.97
2017-11-21T15:53:33.629Z,1.93
2017-11-21T15:56:00.202Z,1.90
2017-11-21T15:58:26.789Z,1.80
2017-11-21T16:00:53.364Z,2.20
2017-11-21T16:03:19.960Z,1.80
2017-11-21T16:05:46.545Z,1.83
2017-11-21T16:08:13.123Z,2.20
2017-11-21T16:10:39.721Z,1.93
2017-11-21T16:13:06.302Z,2.00
2017-11-21T16:15:32.891Z,2.20
2017-11-21T16:17:59.472Z,2.03
2017-11-21T16:20:26.055Z,2.27
2017-11-21T16:22:52.649Z,2.00
2017-11-21T16:25:19.225Z,2.07
2017-11-21T16:27:45.812Z,2.10
2017-11-21T16:30:12.413Z,2.30
2017-11-21T16:32:38.992Z,2.50
2017-11-21T16:35:06.598Z,2.50
2017-11-21T16:37:33.331Z,2.30
2017-11-21T16:39:59.936Z,2.57
2017-11-21T16:42:26.546Z,2.20
2017-11-21T16:44:53.127Z,2.50
2017-11-21T16:47:19.743Z,2.50
2017-11-21T16:49:46.379Z,2.20
2017-11-21T16:52:12.963Z,2.37
2017-11-21T16:54:39.538Z,2.60
2017-11-21T16:57:06.119Z,2.77
2017-11-21T16:59:32.711Z,2.50
2017-11-21T17:01:59.283Z,3.10
2017-11-21T17:04:25.904Z,2.77
2017-11-21T17:06:52.476Z,2.93
2017-11-21T17:09:19.059Z,2.80
2017-11-21T17:11:45.642Z,2.80
2017-11-21T17:14:12.227Z,3.20
2017-11-21T17:16:38.821Z,3.70
2017-11-21T17:19:05.423Z,3.37
2017-11-21T17:21:32.005Z,3.70
2017-11-21T17:23:58.592Z,3.40
2017-11-21T17:26:25.203Z,3.63
2017-11-21T17:28:51.793Z,3.17
2017-11-21T17:31:18.507Z,3.37
2017-11-21T17:33:45.078Z,3.20
2017-11-21T17:36:11.684Z,3.30
2017-11-21T17:38:38.268Z,3.60
2017-11-21T17:41:04.875Z,3.60
2017-11-21T17:43:31.462Z,3.40
2017-11-21T17:45:58.041Z,3.57
2017-11-21T17:48:24.627Z,3.30
2017-11-21T17:50:51.208Z,3.30
2017-11-21T17:53:17.817Z,3.10
2017-11-21T17:55:44.390Z,3.63
2017-11-21T17:58:10.975Z,3.53
2017-11-21T18:00:37.560Z,3.40
2017-11-21T18:03:04.141Z,3.17
2017-11-21T18:05:30.730Z,3.40
2017-11-21T18:07:57.331Z,3.43
2017-11-21T18:10:23.914Z,3.80
2017-11-21T18:12:50.516Z,3.57
2017-11-21T18:15:17.096Z,3.40
2017-11-21T18:17:43.719Z,3.90
2017-11-21T18:20:10.311Z,4.00
2017-11-21T18:22:36.883Z,4.00
2017-11-21T18:25:03.475Z,4.30
2017-11-21T18:27:30.078Z,3.80
2017-11-21T18:29:56.681Z,4.13
2017-11-21T18:32:23.256Z,3.97
2017-11-21T18:34:49.841Z,4.47
2017-11-21T18:37:16.431Z,4.20
2017-11-21T18:39:43.007Z,4.47
2017-11-21T18:42:09.749Z,4.67
2017-11-21T18:44:36.319Z,4.40
2017-11-21T18:47:02.904Z,4.60
2017-11-21T18:49:29.487Z,4.23
2017-11-21T18:51:56.059Z,4.40
2017-11-21T18:54:22.676Z,4.90
2017-11-21T18:56:49.347Z,5.30
2017-11-21T18:59:15.916Z,5.50
2017-11-21T19:01:42.503Z,5.70
2017-11-21T19:04:09.087Z,5.50
2017-11-21T19:06:35.676Z,5.03
2017-11-21T19:09:02.257Z,5.40
2017-11-21T19:11:28.839Z,5.37
2017-11-21T19:13:55.425Z,5.67
2017-11-21T19:16:22.003Z,5.20
2017-11-21T19:18:48.594Z,5.47
2017-11-21T19:21:15.176Z,5.30
2017-11-21T19:23:42.196Z,5.83
2017-11-21T19:26:08.780Z,5.33
2017-11-21T19:28:35.367Z,5.20
2017-11-21T19:31:01.966Z,5.10
2017-11-21T19:33:28.550Z,5.40
2017-11-21T19:35:55.759Z,5.10
2017-11-21T19:38:22.604Z,5.67
2017-11-21T19:40:49.295Z,6.00
2017-11-21T19:43:15.890Z,5.00
2017-11-21T19:45:42.467Z,5.90
2017-11-21T19:48:09.046Z,5.50
2017-11-21T19:50:35.635Z,5.40
2017-11-21T19:53:02.219Z,5.70
2017-11-21T19:55:28.810Z,5.23
2017-11-21T19:57:56.120Z,5.00
2017-11-21T20:00:22.694Z,5.40
2017-11-21T20:02:49.318Z,5.47
2017-11-21T20:05:15.891Z,5.13
2017-11-21T20:07:42.494Z,5.60
2017-11-21T20:10:09.079Z,5.67
2017-11-21T20:12:35.655Z,5.33
2017-11-21T20:15:02.243Z,5.57
2017-11-21T20:17:28.826Z,6.00
2017-11-21T20:19:57.031Z,5.60
2017-11-21T20:22:23.639Z,5.60
2017-11-21T20:24:50.219Z,5.83
2017-11-21T20:27:16.808Z,5.90
2017-11-21T20:29:43.393Z,5.30
2017-11-21T20:32:11.196Z,6.27
2017-11-21T20:34:37.767Z,5.83
2017-11-21T20:37:04.348Z,5.80
2017-11-21T20:39:30.928Z,5.90
2017-11-21T20:41:57.547Z,6.03
2017-11-21T20:44:24.126Z,6.17
2017-11-21T20:46:50.707Z,5.77
2017-11-21T20:49:17.327Z,5.23
2017-11-21T20:51:43.923Z,5.50
2017-11-21T20:54:10.504Z,6.20
2017-11-21T20:56:37.519Z,5.73
2017-11-21T20:59:04.199Z,6.10
2017-11-21T21:01:30.794Z,6.20
2017-11-21T21:03:57.374Z,5.40
2017-11-21T21:06:23.959Z,5.20
2017-11-21T21:08:50.589Z,5.90
2017-11-21T21:11:17.166Z,5.90
2017-11-21T21:13:43.760Z,5.50
2017-11-21T21:16:10.339Z,5.73
2017-11-21T21:18:36.937Z,5.87
2017-11-21T21:21:03.540Z,5.60
2017-11-21T21:23:30.216Z,5.97
2017-11-21T21:25:56.825Z,5.17
2017-11-21T21:28:23.420Z,5.80
2017-11-21T21:30:50.097Z,5.33
2017-11-21T21:33:16.683Z,5.47
2017-11-21T21:35:43.276Z,6.27
2017-11-21T21:38:09.864Z,6.10
2017-11-21T21:40:36.443Z,5.57
2017-11-21T21:43:03.427Z,5.47
2017-11-21T21:45:30.093Z,5.87
2017-11-21T21:47:56.659Z,5.80
2017-11-21T21:50:23.279Z,6.03
2017-11-21T21:52:49.913Z,6.13
2017-11-21T21:55:16.859Z,5.80
2017-11-21T21:57:44.246Z,5.80
2017-11-21T22:00:18.418Z,5.73
2017-11-21T22:02:45.404Z,6.07
2017-11-21T22:05:12.011Z,6.60
2017-11-21T22:07:38.587Z,6.10
2017-11-21T22:10:05.179Z,6.30
2017-11-21T22:12:31.782Z,6.30
2017-11-21T22:14:58.379Z,5.60
2017-11-21T22:17:24.955Z,6.30
2017-11-21T22:19:51.539Z,6.07
2017-11-21T22:22:18.136Z,5.67
2017-11-21T22:24:44.715Z,6.37
2017-11-21T22:27:11.311Z,6.20
2017-11-21T22:29:37.883Z,6.07
2017-11-21T22:32:04.476Z,6.20
2017-11-21T22:34:31.068Z,6.13
2017-11-21T22:36:57.638Z,5.30
2017-11-21T22:39:24.281Z,6.20
2017-11-21T22:41:50.890Z,6.10
2017-11-21T22:44:17.469Z,5.67
2017-11-21T22:46:44.043Z,6.47
2017-11-21T22:49:10.640Z,5.90
2017-11-21T22:51:37.224Z,6.10
2017-11-21T22:54:03.796Z,6.07
2017-11-21T22:56:30.387Z,5.97
2017-11-21T22:58:56.971Z,6.20
2017-11-21T23:01:23.547Z,6.20
2017-11-21T23:03:50.139Z,6.07
2017-11-21T23:06:16.722Z,5.50
2017-11-21T23:08:43.307Z,5.87
2017-11-21T23:11:09.883Z,6.30
2017-11-21T23:13:36.463Z,5.70
2017-11-21T23:16:03.055Z,5.60
2017-11-21T23:18:29.645Z,5.80
2017-11-21T23:20:56.255Z,5.37
2017-11-21T23:23:22.838Z,5.70
2017-11-21T23:25:49.424Z,6.23
2017-11-21T23:28:16.009Z,5.77
2017-11-21T23:30:42.586Z,6.63
2017-11-21T23:33:09.179Z,6.03
2017-11-21T23:35:35.759Z,5.70
2017-11-21T23:38:02.335Z,5.33
2017-11-21T23:40:28.919Z,5.87
2017-11-21T23:42:55.496Z,6.00
2017-11-21T23:45:22.090Z,5.60
2017-11-21T23:47:48.677Z,5.70
2017-11-21T23:50:15.251Z,5.70
2017-11-21T23:52:41.836Z,5.80
2017-11-21T23:55:08.416Z,5.70
2017-11-21T23:57:35.015Z,5.77
